Time;durP1;ratioP1;P1;durP2;ratioP2;P2;SDS_P1;SDS_P2;PMS_P1;PMS_P2;Temp;Humidity;BMP_temperature;BMP_pressure;BME280_temperature;BME280_humidity;BME280_pressure;Samples;Min_cycle;Max_cycle;Signal;HPM_P1;HPM_P2
2021/12/27 00:00:34;;;;;;;122.23;61.13;;;10.60;68.20;;;;;;10408266;28;20212;-77
2021/12/27 00:05:37;;;;;;;110.23;59.17;;;10.60;68.20;;;;;;10457290;28;20222;-79
2021/12/27 00:10:40;;;;;;;114.47;58.50;;;10.50;68.50;;;;;;10438863;28;20209;-78
2021/12/27 00:15:43;;;;;;;110.57;57.67;;;10.50;68.30;;;;;;10413319;28;20250;-78
2021/12/27 00:20:46;;;;;;;110.73;59.87;;;10.60;68.20;;;;;;10440575;28;20200;-78
2021/12/27 00:25:48;;;;;;;105.87;56.70;;;10.70;68.00;;;;;;10426232;28;20274;-79
2021/12/27 00:30:51;;;;;;;111.97;59.10;;;10.60;68.00;;;;;;10397851;28;20750;-78
2021/12/27 00:35:54;;;;;;;120.13;59.00;;;10.80;67.70;;;;;;10414191;28;20258;-79
2021/12/27 00:40:56;;;;;;;111.70;58.10;;;10.70;67.60;;;;;;10413217;28;20281;-78
2021/12/27 00:45:58;;;;;;;106.40;55.93;;;10.70;67.60;;;;;;10413277;28;20208;-78
2021/12/27 00:51:02;;;;;;;103.10;56.77;;;10.70;67.90;;;;;;10395744;28;20208;-79
2021/12/27 00:56:05;;;;;;;114.67;58.97;;;10.70;67.80;;;;;;10365790;28;20212;-79
2021/12/27 01:01:07;;;;;;;109.77;57.37;;;10.70;67.60;;;;;;10410079;28;20199;-78
2021/12/27 01:06:10;;;;;;;107.40;55.27;;;10.70;67.60;;;;;;10420480;28;20200;-79
2021/12/27 01:16:21;;;;;;;111.03;58.27;;;10.80;67.30;;;;;;10420195;28;20270;-78
2021/12/27 01:21:24;;;;;;;110.80;56.70;;;10.90;67.00;;;;;;10420207;28;20207;-79
2021/12/27 01:26:27;;;;;;;112.20;57.90;;;10.80;67.00;;;;;;10419363;28;20216;-79
2021/12/27 01:31:29;;;;;;;108.30;59.07;;;10.90;66.90;;;;;;10419647;28;20220;-79
2021/12/27 01:36:32;;;;;;;113.43;56.20;;;10.80;66.90;;;;;;10366447;28;20209;-79
2021/12/27 01:41:35;;;;;;;106.53;54.27;;;10.80;67.00;;;;;;10377671;28;20297;-79
2021/12/27 01:46:39;;;;;;;108.00;55.40;;;10.90;66.70;;;;;;10378023;28;20262;-79
2021/12/27 01:51:44;;;;;;;110.70;56.10;;;10.90;66.50;;;;;;10377958;28;20221;-79
2021/12/27 01:56:49;;;;;;;101.83;54.50;;;10.70;66.80;;;;;;10360280;28;20606;-79
2021/12/27 02:01:56;;;;;;;109.83;56.00;;;10.70;67.00;;;;;;10400499;28;20212;-80
2021/12/27 02:06:59;;;;;;;104.00;55.60;;;10.70;66.70;;;;;;10379925;28;20258;-79
2021/12/27 02:12:02;;;;;;;103.20;56.23;;;10.60;66.80;;;;;;10377923;28;20762;-79
2021/12/27 02:17:05;;;;;;;108.40;54.53;;;10.70;66.50;;;;;;10417724;28;20204;-79
2021/12/27 02:22:07;;;;;;;101.20;53.67;;;10.60;66.80;;;;;;10383244;28;20215;-79
2021/12/27 02:27:14;;;;;;;99.97;52.73;;;10.70;66.50;;;;;;10384658;28;20205;-79
2021/12/27 02:32:17;;;;;;;100.80;51.83;;;10.70;66.30;;;;;;10355916;28;20268;-79
2021/12/27 02:37:19;;;;;;;95.53;50.23;;;10.70;66.50;;;;;;10390319;28;20232;-79
2021/12/27 02:42:22;;;;;;;102.67;53.03;;;10.70;66.00;;;;;;10372463;28;20256;-79
2021/12/27 02:47:24;;;;;;;92.23;50.60;;;10.80;66.00;;;;;;10354691;28;20236;-79
2021/12/27 02:52:27;;;;;;;103.60;54.50;;;10.80;65.80;;;;;;10409094;28;20274;-80
2021/12/27 02:57:29;;;;;;;93.50;48.07;;;10.80;65.80;;;;;;10406903;28;20236;-79
2021/12/27 03:02:36;;;;;;;95.63;49.73;;;10.80;65.50;;;;;;10354176;28;20685;-80
2021/12/27 03:07:40;;;;;;;92.40;48.90;;;10.80;65.60;;;;;;10353984;28;20723;-79
2021/12/27 03:12:44;;;;;;;92.87;49.70;;;10.80;65.70;;;;;;10396794;28;20318;-80
2021/12/27 03:17:47;;;;;;;93.90;48.37;;;10.80;65.50;;;;;;10374522;28;20239;-79
2021/12/27 03:22:50;;;;;;;89.00;47.47;;;10.80;65.50;;;;;;10371204;28;20239;-79
2021/12/27 03:27:53;;;;;;;88.83;46.33;;;10.80;65.30;;;;;;10370924;28;20248;-79
2021/12/27 03:32:56;;;;;;;98.43;46.43;;;10.80;65.20;;;;;;10353621;28;20260;-79
2021/12/27 03:37:59;;;;;;;88.17;47.80;;;10.90;65.10;;;;;;10353392;28;20283;-79
2021/12/27 03:43:02;;;;;;;85.00;44.33;;;10.90;65.10;;;;;;10393767;28;20684;-79
2021/12/27 03:48:06;;;;;;;90.83;47.17;;;10.20;65.60;;;;;;10393806;28;20766;-79
2021/12/27 03:53:08;;;;;;;89.37;45.23;;;10.40;66.90;;;;;;10364387;28;20640;-79
2021/12/27 03:58:23;;;;;;;84.60;43.10;;;10.60;65.50;;;;;;10387350;28;20268;-79
2021/12/27 04:03:27;;;;;;;92.30;46.93;;;10.50;65.90;;;;;;10393179;28;20247;-79
2021/12/27 04:08:30;;;;;;;89.67;47.27;;;10.60;65.50;;;;;;10392632;28;20283;-79
2021/12/27 04:13:33;;;;;;;81.90;41.90;;;10.70;65.50;;;;;;10351477;28;20645;-79
2021/12/27 04:18:36;;;;;;;77.30;42.47;;;10.70;65.10;;;;;;10356241;28;20240;-79
2021/12/27 04:23:38;;;;;;;91.30;46.70;;;10.70;65.20;;;;;;10380757;28;20749;-79
2021/12/27 04:28:41;;;;;;;79.47;44.00;;;10.70;65.20;;;;;;10409522;28;20233;-79
2021/12/27 04:33:43;;;;;;;80.20;43.07;;;10.60;65.20;;;;;;10408698;28;20255;-80
2021/12/27 04:38:46;;;;;;;85.47;41.27;;;10.60;65.40;;;;;;10408695;28;20250;-80
2021/12/27 04:43:48;;;;;;;82.67;43.97;;;10.50;65.60;;;;;;10394646;28;20204;-79
2021/12/27 04:48:52;;;;;;;85.90;42.80;;;10.60;65.30;;;;;;10368044;28;20959;-79
2021/12/27 04:53:55;;;;;;;76.67;41.20;;;10.60;65.10;;;;;;10403027;28;20305;-79
2021/12/27 04:58:57;;;;;;;81.70;39.73;;;10.40;65.50;;;;;;10334370;28;20302;-79
2021/12/27 05:03:59;;;;;;;80.23;40.37;;;10.30;65.90;;;;;;10360350;28;20672;-80
2021/12/27 05:09:02;;;;;;;79.27;41.03;;;10.40;65.60;;;;;;10389527;28;20639;-80
2021/12/27 05:14:05;;;;;;;81.40;41.27;;;10.50;65.30;;;;;;10391027;28;20627;-80
2021/12/27 05:19:08;;;;;;;70.93;39.67;;;10.50;65.20;;;;;;10402744;28;20618;-80
2021/12/27 05:24:11;;;;;;;72.27;38.57;;;10.60;65.00;;;;;;10375563;28;20243;-79
2021/12/27 05:29:14;;;;;;;81.00;39.23;;;10.20;65.70;;;;;;10368622;28;20232;-79
2021/12/27 05:34:17;;;;;;;69.90;36.83;;;10.30;65.80;;;;;;10384044;28;20290;-79
2021/12/27 05:39:22;;;;;;;73.40;39.27;;;10.40;65.50;;;;;;10388460;28;20290;-80
2021/12/27 05:44:24;;;;;;;66.60;35.57;;;10.50;65.00;;;;;;10388811;28;20650;-79
2021/12/27 05:49:27;;;;;;;70.80;37.07;;;10.70;64.70;;;;;;10366979;28;20765;-79
2021/12/27 05:54:29;;;;;;;68.73;37.40;;;10.60;64.60;;;;;;10374070;28;20255;-79
2021/12/27 05:59:32;;;;;;;63.47;35.93;;;10.50;64.80;;;;;;10391192;28;20227;-79
2021/12/27 06:04:34;;;;;;;69.73;34.97;;;10.10;65.80;;;;;;10391362;28;20285;-79
2021/12/27 06:09:36;;;;;;;64.33;34.23;;;10.30;65.30;;;;;;10392024;28;20243;-79
2021/12/27 06:14:39;;;;;;;67.47;36.83;;;10.00;65.40;;;;;;10382792;28;20322;-79
2021/12/27 06:19:41;;;;;;;61.53;34.03;;;10.10;66.10;;;;;;10378155;28;20208;-79
2021/12/27 06:24:44;;;;;;;67.80;35.47;;;10.30;65.50;;;;;;10399749;28;20278;-79
2021/12/27 06:29:47;;;;;;;61.03;34.73;;;10.30;65.50;;;;;;10381360;28;20619;-79
2021/12/27 06:34:49;;;;;;;64.20;33.73;;;10.50;64.90;;;;;;10395419;28;20255;-79
2021/12/27 06:39:52;;;;;;;63.47;33.00;;;10.40;65.00;;;;;;10373890;28;20264;-79
2021/12/27 06:44:54;;;;;;;66.73;34.20;;;10.50;63.90;;;;;;10365644;28;20678;-79
2021/12/27 06:49:57;;;;;;;59.40;32.70;;;10.40;65.30;;;;;;10366655;28;20278;-79
2021/12/27 06:54:59;;;;;;;59.00;31.23;;;10.80;64.20;;;;;;10369645;28;20651;-79
2021/12/27 07:00:06;;;;;;;54.67;30.87;;;10.60;64.50;;;;;;10384168;28;20738;-79
2021/12/27 07:05:10;;;;;;;60.30;31.00;;;10.40;65.10;;;;;;10370277;28;20270;-80
2021/12/27 07:10:15;;;;;;;53.93;30.13;;;10.70;64.30;;;;;;10366814;28;20235;-79
2021/12/27 07:15:17;;;;;;;60.80;31.30;;;10.70;64.10;;;;;;10367821;28;20326;-80
2021/12/27 07:20:20;;;;;;;57.13;29.47;;;10.80;63.70;;;;;;10365009;28;20282;-80
2021/12/27 07:25:22;;;;;;;58.43;30.03;;;10.70;63.90;;;;;;10387388;28;20697;-80
2021/12/27 07:30:26;;;;;;;50.57;28.83;;;10.40;64.60;;;;;;10385967;28;20240;-80
2021/12/27 07:35:28;;;;;;;54.77;29.70;;;10.70;64.10;;;;;;10390058;28;20647;-80
2021/12/27 07:40:31;;;;;;;50.57;28.13;;;10.70;63.90;;;;;;10360304;28;20263;-80
2021/12/27 07:45:33;;;;;;;55.00;27.87;;;10.80;63.60;;;;;;10374685;28;20228;-79
2021/12/27 07:50:38;;;;;;;55.67;28.90;;;10.70;63.50;;;;;;10388725;28;20236;-80
2021/12/27 07:55:40;;;;;;;60.77;32.67;;;10.90;63.40;;;;;;10375637;28;20250;-80
2021/12/27 08:00:50;;;;;;;51.57;27.63;;;10.90;58.90;;;;;;10361899;28;20228;-80
2021/12/27 08:05:52;;;;;;;53.83;28.13;;;11.00;63.20;;;;;;10370049;28;20227;-80
2021/12/27 08:10:55;;;;;;;63.37;34.27;;;11.00;62.80;;;;;;10386522;28;20235;-80
2021/12/27 08:15:57;;;;;;;51.50;26.90;;;10.80;61.90;;;;;;10368783;28;20810;-80
2021/12/27 08:21:00;;;;;;;51.87;26.37;;;10.80;63.20;;;;;;10359978;28;20235;-80
2021/12/27 08:26:03;;;;;;;53.93;28.63;;;11.00;62.70;;;;;;10376322;28;20244;-80
2021/12/27 08:31:05;;;;;;;66.83;34.63;;;11.10;62.40;;;;;;10351389;28;20625;-80
2021/12/27 08:36:08;;;;;;;50.67;28.77;;;11.20;62.00;;;;;;10351176;28;20763;-80
2021/12/27 08:41:11;;;;;;;56.53;28.67;;;11.30;62.00;;;;;;10386184;28;20608;-80
2021/12/27 08:46:13;;;;;;;57.47;33.27;;;11.20;62.10;;;;;;10407016;28;20273;-80
2021/12/27 08:51:16;;;;;;;52.50;27.63;;;11.10;61.30;;;;;;10389078;28;20306;-80
2021/12/27 08:56:19;;;;;;;57.77;27.93;;;11.10;62.30;;;;;;10349839;28;20267;-80
2021/12/27 09:01:22;;;;;;;49.83;27.07;;;11.10;62.30;;;;;;10367685;28;20302;-80
2021/12/27 09:06:24;;;;;;;71.60;34.33;;;11.00;62.40;;;;;;10349993;28;20251;-80
2021/12/27 09:11:27;;;;;;;54.57;28.67;;;11.00;62.00;;;;;;10349748;28;20213;-80
2021/12/27 09:16:29;;;;;;;52.80;27.17;;;10.70;62.20;;;;;;10367434;28;20705;-80
2021/12/27 09:21:33;;;;;;;49.93;27.40;;;11.30;61.90;;;;;;10381243;28;20247;-80
2021/12/27 09:26:35;;;;;;;68.53;36.77;;;11.20;61.80;;;;;;10369830;28;20245;-79
2021/12/27 09:31:38;;;;;;;77.53;38.57;;;10.80;59.50;;;;;;10384890;28;20621;-79
2021/12/27 09:36:41;;;;;;;55.37;27.23;;;10.60;60.10;;;;;;10374711;28;20724;-80
2021/12/27 09:41:43;;;;;;;47.53;26.60;;;11.10;62.20;;;;;;10380477;28;20259;-79
2021/12/27 09:46:46;;;;;;;44.23;25.67;;;11.10;62.10;;;;;;10376538;28;20262;-80
2021/12/27 09:51:49;;;;;;;47.27;26.40;;;11.10;62.00;;;;;;10383024;28;20282;-80
2021/12/27 09:56:51;;;;;;;47.37;25.83;;;11.00;62.50;;;;;;10414793;28;20294;-80
2021/12/27 10:01:54;;;;;;;79.20;39.17;;;11.00;62.30;;;;;;10371411;28;20621;-79
2021/12/27 10:06:56;;;;;;;68.50;35.37;;;0.10;99.90;;;;;;10388286;28;20621;-79
2021/12/27 10:12:02;;;;;;;63.57;33.37;;;7.70;85.10;;;;;;10394780;28;20251;-80
2021/12/27 10:17:10;;;;;;;62.50;33.10;;;9.60;73.30;;;;;;10376947;28;20263;-79
2021/12/27 10:22:13;;;;;;;64.93;35.83;;;10.30;69.40;;;;;;10357552;28;20289;-79
2021/12/27 10:27:16;;;;;;;62.80;34.83;;;10.70;67.70;;;;;;10393445;28;20294;-79
2021/12/27 10:32:20;;;;;;;63.03;34.53;;;10.80;66.40;;;;;;10355235;28;20248;-79
2021/12/27 10:37:25;;;;;;;62.87;32.73;;;10.80;66.00;;;;;;10355676;28;20685;-79
2021/12/27 10:42:31;;;;;;;64.90;33.80;;;10.70;66.00;;;;;;10338173;28;20788;-79
2021/12/27 10:47:35;;;;;;;64.73;35.33;;;10.70;66.00;;;;;;10362774;28;20778;-80
2021/12/27 10:52:40;;;;;;;62.27;33.73;;;10.80;65.80;;;;;;10351703;28;20648;-79
2021/12/27 10:57:44;;;;;;;65.20;33.53;;;10.60;66.00;;;;;;10331255;28;20268;-79
2021/12/27 11:02:47;;;;;;;64.00;33.37;;;10.60;66.10;;;;;;10013129;28;10000002;-80
2021/12/27 11:07:59;;;;;;;62.60;32.20;;;10.60;64.90;;;;;;10327797;28;20244;-80
2021/12/27 11:13:04;;;;;;;58.90;33.50;;;10.90;65.00;;;;;;10326956;28;20711;-80
2021/12/27 11:18:07;;;;;;;79.97;42.27;;;11.10;64.50;;;;;;10357419;28;20256;-80
2021/12/27 11:23:11;;;;;;;54.43;32.20;;;10.60;55.20;;;;;;10328883;28;20232;-80
2021/12/27 11:28:31;;;;;;;57.67;31.37;;;10.70;65.00;;;;;;10343781;28;20305;-80
2021/12/27 11:33:59;;;;;;;54.17;29.50;;;10.80;65.00;;;;;;10365847;28;20697;-80
2021/12/27 11:39:26;;;;;;;56.77;31.50;;;10.50;64.30;;;;;;10377363;28;20667;-80
2021/12/27 11:44:56;;;;;;;53.77;29.47;;;10.70;64.70;;;;;;10395571;28;20235;-80
2021/12/27 11:50:03;;;;;;;49.27;28.07;;;10.30;64.90;;;;;;10362867;28;20243;-80
2021/12/27 11:55:12;;;;;;;56.67;31.80;;;10.90;64.70;;;;;;10368369;28;20259;-80
2021/12/27 12:00:18;;;;;;;58.63;31.97;;;11.00;63.80;;;;;;10387533;28;20232;-80
2021/12/27 12:05:42;;;;;;;54.10;29.97;;;9.90;62.90;;;;;;10369312;28;20262;-80
2021/12/27 12:10:56;;;;;;;48.43;28.50;;;10.30;65.10;;;;;;10392399;28;20768;-80
2021/12/27 12:16:06;;;;;;;65.77;31.90;;;10.50;65.60;;;;;;10395607;28;20252;-85
2021/12/27 12:21:28;;;;;;;66.50;35.07;;;2.50;57.90;;;;;;10383093;28;20308;-84
2021/12/27 12:26:50;;;;;;;68.20;29.47;;;-3.30;77.40;;;;;;10374589;28;20310;-81
2021/12/27 12:32:07;;;;;;;73.77;34.60;;;-4.10;85.80;;;;;;10350387;28;20216;-84
2021/12/27 12:37:12;;;;;;;76.83;34.80;;;-4.70;95.60;;;;;;10392293;28;20658;-82
2021/12/27 12:42:16;;;;;;;92.80;40.40;;;-5.00;98.50;;;;;;10408198;28;20267;-83
2021/12/27 12:47:21;;;;;;;54.93;30.87;;;-4.90;99.90;;;;;;10377945;28;20243;-83
2021/12/27 12:52:23;;;;;;;72.17;34.47;;;-3.80;99.90;;;;;;10408450;28;20232;-83
2021/12/27 12:57:26;;;;;;;75.73;35.70;;;-3.70;99.90;;;;;;10399718;28;20305;-79
2021/12/27 13:02:30;;;;;;;99.60;41.10;;;-4.00;99.90;;;;;;10378375;28;20244;-81
2021/12/27 13:07:45;;;;;;;90.87;37.70;;;-4.50;99.60;;;;;;10368228;28;20298;-77
2021/12/27 13:12:48;;;;;;;98.00;38.30;;;-3.40;99.90;;;;;;10362535;28;20696;-77
2021/12/27 13:18:03;;;;;;;87.47;37.87;;;-4.10;96.80;;;;;;10390312;28;20320;-78
2021/12/27 13:23:07;;;;;;;110.00;45.57;;;-3.60;95.90;;;;;;10407560;28;20601;-78
2021/12/27 13:28:30;;;;;;;92.00;39.77;;;-4.30;96.80;;;;;;10364281;28;20708;-77
2021/12/27 13:33:49;;;;;;;91.93;42.43;;;-5.20;99.90;;;;;;10375250;28;20230;-77
2021/12/27 13:39:09;;;;;;;83.00;37.30;;;-5.40;99.90;;;;;;10388120;28;20699;-89
2021/12/27 13:44:12;;;;;;;86.90;38.33;;;-1.80;99.90;;;;;;10333959;28;20212;-88
2021/12/27 13:49:18;;;;;;;74.80;34.00;;;-3.40;93.10;;;;;;10333846;28;20204;-88
2021/12/27 13:54:22;;;;;;;67.03;29.73;;;-4.00;98.90;;;;;;10349201;28;20228;-88
2021/12/27 13:59:24;;;;;;;65.67;30.73;;;-3.70;99.00;;;;;;10349841;28;20205;-88
2021/12/27 14:04:29;;;;;;;85.93;34.83;;;-4.90;99.20;;;;;;10350837;28;20298;-88
2021/12/27 14:09:33;;;;;;;57.47;27.40;;;-4.20;99.90;;;;;;10356047;28;20791;-88
2021/12/27 14:14:45;;;;;;;131.43;53.70;;;-5.10;99.90;;;;;;10356120;28;20326;-88
2021/12/27 14:20:01;;;;;;;58.43;28.00;;;-5.70;99.90;;;;;;10373068;28;20244;-88
2021/12/27 14:25:05;;;;;;;48.70;24.67;;;-5.80;99.90;;;;;;10372876;28;20277;-88
2021/12/27 14:30:16;;;;;;;63.20;29.07;;;-5.90;99.90;;;;;;10355399;28;20244;-88
2021/12/27 14:35:27;;;;;;;69.20;31.40;;;-5.40;99.90;;;;;;10339501;28;20717;-88
2021/12/27 14:40:31;;;;;;;63.67;32.03;;;-5.70;99.90;;;;;;10354366;28;20863;-88
2021/12/27 14:45:35;;;;;;;72.03;32.80;;;-6.30;99.90;;;;;;10354682;28;20267;-88
2021/12/27 14:50:39;;;;;;;78.37;35.53;;;-5.80;99.90;;;;;;10354958;28;20243;-88
2021/12/27 14:55:43;;;;;;;86.47;35.43;;;-5.80;99.90;;;;;;10371710;28;20271;-88
2021/12/27 15:00:55;;;;;;;68.90;33.40;;;-5.50;99.90;;;;;;10354435;28;20235;-88
2021/12/27 15:05:59;;;;;;;77.77;37.03;;;-5.50;99.90;;;;;;10371457;28;20278;-88
2021/12/27 15:11:02;;;;;;;83.37;34.17;;;-6.00;99.40;;;;;;10337436;28;20242;-88
2021/12/27 15:16:04;;;;;;;84.63;36.77;;;-6.70;99.90;;;;;;10353961;28;20858;-88
2021/12/27 15:21:07;;;;;;;93.80;40.33;;;-6.70;99.90;;;;;;10353828;28;20290;-88
2021/12/27 15:26:09;;;;;;;90.83;40.03;;;-6.60;99.90;;;;;;10337665;28;20214;-88
2021/12/27 15:31:12;;;;;;;77.90;39.60;;;-6.70;99.90;;;;;;10360641;28;20196;-86
2021/12/27 15:36:14;;;;;;;99.30;49.23;;;-1.10;99.90;;;;;;10379088;28;20306;-83
2021/12/27 15:41:17;;;;;;;130.73;63.50;;;-3.50;99.90;;;;;;10362038;28;20256;-84
2021/12/27 15:46:22;;;;;;;113.37;54.63;;;-4.90;93.50;;;;;;10349928;28;20233;-84
2021/12/27 15:51:25;;;;;;;91.07;43.77;;;-6.10;97.00;;;;;;10328356;28;20259;-83
2021/12/27 15:56:27;;;;;;;100.80;49.23;;;-6.20;99.90;;;;;;10328424;28;20753;-84
2021/12/27 16:01:30;;;;;;;76.83;35.33;;;-6.50;99.90;;;;;;10311984;28;20298;-84
2021/12/27 16:06:35;;;;;;;93.43;43.10;;;-5.00;99.90;;;;;;10324716;28;20812;-83
2021/12/27 16:11:37;;;;;;;79.23;39.03;;;-5.30;99.90;;;;;;10350018;28;20254;-84
2021/12/27 16:16:41;;;;;;;101.47;47.87;;;-4.60;99.90;;;;;;10368128;28;20278;-84
2021/12/27 16:21:44;;;;;;;95.23;43.07;;;-5.80;99.90;;;;;;10369245;28;20228;-84
2021/12/27 16:26:46;;;;;;;77.03;33.23;;;-6.50;99.90;;;;;;10349058;28;20289;-84
2021/12/27 16:31:49;;;;;;;101.23;46.03;;;-5.20;99.90;;;;;;10327641;28;20608;-83
2021/12/27 16:36:51;;;;;;;61.90;31.97;;;-5.70;99.90;;;;;;10003898;28;9999915;-83
2021/12/27 16:41:54;;;;;;;106.83;46.43;;;-3.20;99.90;;;;;;10331873;28;21051;-83
2021/12/27 16:46:56;;;;;;;91.33;41.97;;;-3.10;99.90;;;;;;10338637;28;20724;-84
2021/12/27 16:52:02;;;;;;;99.97;45.27;;;-3.60;99.90;;;;;;10322821;28;20282;-84
2021/12/27 16:57:06;;;;;;;106.40;45.03;;;-5.10;99.90;;;;;;10326544;28;20260;-84
2021/12/27 17:02:09;;;;;;;102.13;44.03;;;-5.60;99.90;;;;;;10348206;28;20244;-83
2021/12/27 17:07:12;;;;;;;86.67;37.37;;;-5.90;99.90;;;;;;10363017;28;20302;-83
2021/12/27 17:12:14;;;;;;;93.97;42.73;;;-5.10;99.90;;;;;;10362063;28;20283;-83
2021/12/27 17:17:17;;;;;;;91.57;40.23;;;-6.20;99.90;;;;;;10346581;28;20320;-83
2021/12/27 17:22:20;;;;;;;97.70;41.73;;;-6.20;99.90;;;;;;10333060;28;20281;-83
2021/12/27 17:27:22;;;;;;;103.53;42.03;;;-5.50;99.90;;;;;;10317490;28;20243;-83
2021/12/27 17:32:25;;;;;;;81.97;38.07;;;-4.40;99.90;;;;;;10340682;28;20239;-83
2021/12/27 17:37:28;;;;;;;95.60;43.43;;;-3.30;99.90;;;;;;10332901;28;20738;-83
2021/12/27 17:42:30;;;;;;;111.53;46.87;;;-4.20;98.10;;;;;;10433396;23;20259;-83
2021/12/27 17:47:34;;;;;;;100.30;46.07;;;-2.80;98.50;;;;;;10403874;28;20247;-84
2021/12/27 17:52:37;;;;;;;94.20;43.37;;;-4.20;99.90;;;;;;10381021;28;20274;-83
2021/12/27 17:57:39;;;;;;;167.13;70.20;;;-4.80;99.90;;;;;;10874352;23;20298;-80
2021/12/27 18:02:42;;;;;;;134.97;57.17;;;-7.00;99.90;;;;;;10378174;28;20230;-78
2021/12/27 18:07:46;;;;;;;113.73;51.00;;;-7.80;99.90;;;;;;10378433;28;20270;-80
2021/12/27 18:12:50;;;;;;;104.93;48.17;;;-7.80;99.90;;;;;;10372259;23;20325;-79
2021/12/27 18:17:52;;;;;;;111.27;48.33;;;-8.00;99.90;;;;;;10331357;28;20274;-78
2021/12/27 18:22:55;;;;;;;118.17;46.17;;;-6.60;99.90;;;;;;10331104;28;20239;-79
2021/12/27 18:27:58;;;;;;;104.60;45.27;;;-7.30;99.90;;;;;;10314121;28;20288;-78
2021/12/27 18:33:00;;;;;;;113.40;49.27;;;-7.70;99.90;;;;;;10310253;28;20689;-80
2021/12/27 18:38:03;;;;;;;99.83;43.00;;;-5.80;99.90;;;;;;10290940;28;20688;-79
2021/12/27 18:43:05;;;;;;;106.23;46.83;;;-2.80;99.90;;;;;;10313498;28;20248;-80
2021/12/27 18:48:08;;;;;;;95.60;43.63;;;-4.10;99.90;;;;;;10317553;28;20236;-80
2021/12/27 18:53:11;;;;;;;85.70;39.83;;;-2.80;99.90;;;;;;10318636;28;20208;-80
2021/12/27 18:58:17;;;;;;;61.57;31.73;;;-1.60;99.90;;;;;;10338543;28;20268;-80
2021/12/27 19:03:19;;;;;;;83.10;38.17;;;0.20;99.90;;;;;;10356147;28;20631;-80
2021/12/27 19:08:23;;;;;;;73.10;36.90;;;0.50;94.10;;;;;;10330699;28;20295;-80
2021/12/27 19:13:26;;;;;;;90.53;43.33;;;2.10;99.90;;;;;;10314405;28;20645;-80
2021/12/27 19:18:29;;;;;;;62.70;31.07;;;-0.50;88.60;;;;;;10297052;28;20266;-80
2021/12/27 19:23:32;;;;;;;78.40;38.63;;;0.40;99.90;;;;;;10345596;28;20234;-79
2021/12/27 19:28:38;;;;;;;78.50;39.80;;;-0.90;91.90;;;;;;10336715;28;20589;-80
2021/12/27 19:33:41;;;;;;;63.47;31.27;;;-2.20;99.70;;;;;;10311996;28;20236;-80
2021/12/27 19:38:43;;;;;;;71.30;35.83;;;-0.60;99.90;;;;;;10329270;28;20289;-80
2021/12/27 19:43:46;;;;;;;74.93;38.77;;;1.80;99.90;;;;;;10304639;28;20238;-80
2021/12/27 19:48:48;;;;;;;72.13;36.70;;;0.30;99.90;;;;;;10328766;28;20302;-80
2021/12/27 19:53:51;;;;;;;74.97;36.60;;;0.90;96.20;;;;;;10329258;28;20689;-80
2021/12/27 19:58:53;;;;;;;68.43;33.10;;;1.50;93.20;;;;;;10329345;28;20259;-80
2021/12/27 20:03:56;;;;;;;64.93;31.93;;;1.00;95.60;;;;;;10379066;23;20259;-80
2021/12/27 20:08:58;;;;;;;70.83;35.00;;;4.20;99.90;;;;;;10351574;28;20987;-80
2021/12/27 20:14:02;;;;;;;73.37;34.40;;;3.50;90.70;;;;;;10338238;28;20298;-80
2021/12/27 20:19:05;;;;;;;73.20;34.27;;;1.30;98.00;;;;;;10353136;28;20256;-80
2021/12/27 20:24:07;;;;;;;56.20;28.83;;;2.20;91.10;;;;;;10000922;28;9999987;-80
2021/12/27 20:29:10;;;;;;;63.53;32.00;;;3.50;99.90;;;;;;10354971;28;20252;-80
2021/12/27 20:34:12;;;;;;;64.23;31.17;;;2.50;93.40;;;;;;10364089;28;20625;-79
2021/12/27 20:39:15;;;;;;;58.53;28.87;;;1.60;97.60;;;;;;10363623;28;20267;-80
2021/12/27 20:44:18;;;;;;;46.43;27.90;;;2.70;93.60;;;;;;10365094;28;20270;-80
2021/12/27 20:49:25;;;;;;;50.77;28.57;;;4.20;99.90;;;;;;10364166;28;20235;-80
2021/12/27 20:54:27;;;;;;;59.57;30.40;;;3.40;99.90;;;;;;10347150;28;20255;-80
2021/12/27 20:59:30;;;;;;;62.70;32.13;;;;;;;;;;10365179;28;20254;-80
2021/12/27 21:04:33;;;;;;;52.57;28.80;;;1.60;94.10;;;;;;10327443;28;20270;-80
2021/12/27 21:09:36;;;;;;;58.50;31.40;;;3.70;96.10;;;;;;10309468;28;20236;-80
2021/12/27 21:14:38;;;;;;;50.23;27.20;;;2.50;98.40;;;;;;10367914;28;20254;-81
2021/12/27 21:19:41;;;;;;;53.30;29.93;;;1.70;99.90;;;;;;10373515;28;20285;-79
2021/12/27 21:24:44;;;;;;;59.37;29.23;;;1.40;95.30;;;;;;10373876;28;20252;-79
2021/12/27 21:29:47;;;;;;;62.80;33.50;;;1.00;96.50;;;;;;10368290;28;20311;-79
2021/12/27 21:34:50;;;;;;;68.07;33.80;;;-0.90;99.90;;;;;;10358960;28;20298;-79
2021/12/27 21:39:52;;;;;;;74.63;32.40;;;0.40;99.90;;;;;;10356354;28;20264;-80
2021/12/27 21:44:55;;;;;;;72.23;33.07;;;-0.80;99.90;;;;;;10361658;28;20291;-80
2021/12/27 21:49:58;;;;;;;85.60;38.47;;;-2.80;99.90;;;;;;10354858;28;20244;-80
2021/12/27 21:55:00;;;;;;;60.10;30.20;;;-1.10;99.90;;;;;;10352293;28;20232;-79
2021/12/27 22:00:09;;;;;;;74.03;32.43;;;-0.10;99.90;;;;;;10355140;28;20709;-80
2021/12/27 22:05:12;;;;;;;68.20;28.80;;;-1.70;99.90;;;;;;10344235;28;20768;-79
2021/12/27 22:10:15;;;;;;;60.23;29.90;;;-2.90;99.90;;;;;;10356786;28;20243;-79
2021/12/27 22:15:19;;;;;;;70.47;28.00;;;-1.10;99.90;;;;;;10360531;28;20298;-79
2021/12/27 22:20:21;;;;;;;63.43;28.27;;;-1.50;99.90;;;;;;10338560;28;21009;-79
2021/12/27 22:25:25;;;;;;;55.17;26.03;;;-2.00;99.90;;;;;;10359038;28;20283;-80
2021/12/27 22:30:27;;;;;;;58.27;26.37;;;1.50;99.90;;;;;;10348639;28;20327;-80
2021/12/27 22:35:30;;;;;;;55.20;24.77;;;1.00;95.30;;;;;;10361500;28;20245;-79
2021/12/27 22:40:34;;;;;;;46.60;24.97;;;-1.10;98.20;;;;;;10370714;28;21003;-79
2021/12/27 22:45:37;;;;;;;52.53;22.83;;;-1.80;99.90;;;;;;10370693;28;20215;-78
2021/12/27 22:50:40;;;;;;;43.53;24.97;;;2.00;99.90;;;;;;10370953;28;20759;-78
2021/12/27 22:55:42;;;;;;;56.67;27.83;;;-0.80;99.00;;;;;;10371682;28;20220;-78
2021/12/27 23:00:50;;;;;;;52.80;26.57;;;-2.10;99.90;;;;;;10387871;23;20311;-80
2021/12/27 23:05:53;;;;;;;48.37;25.33;;;-2.10;99.90;;;;;;10324648;28;20209;-80
2021/12/27 23:10:56;;;;;;;61.10;26.20;;;0.50;99.90;;;;;;10340723;28;20287;-80
2021/12/27 23:15:58;;;;;;;54.67;26.43;;;-0.60;99.90;;;;;;10330469;28;20246;-80
2021/12/27 23:21:01;;;;;;;62.57;25.23;;;-1.80;99.90;;;;;;10330151;28;20318;-81
2021/12/27 23:26:07;;;;;;;57.60;24.90;;;-1.70;99.90;;;;;;10316962;28;20311;-80
2021/12/27 23:31:10;;;;;;;49.03;24.13;;;-0.90;99.90;;;;;;10340614;28;20278;-80
2021/12/27 23:36:14;;;;;;;47.30;24.43;;;-0.40;99.90;;;;;;10323257;28;20755;-82
2021/12/27 23:41:17;;;;;;;45.23;24.23;;;0.60;99.90;;;;;;10292749;28;20261;-80
2021/12/27 23:46:20;;;;;;;51.90;25.70;;;1.40;99.90;;;;;;10294852;28;20210;-82
2021/12/27 23:51:23;;;;;;;51.33;25.23;;;1.40;99.90;;;;;;10329641;28;20245;-82
2021/12/27 23:56:25;;;;;;;55.13;26.70;;;2.50;91.20;;;;;;10328266;28;20656;-80
